createdAt,value
2022-08-17T00:00:06.016Z,99582.95
2022-08-17T00:01:06.999Z,99583.76
2022-08-17T00:02:18.720Z,99586.56
2022-08-17T00:03:12.675Z,99587.31
2022-08-17T00:04:11.923Z,99586.38
2022-08-17T00:05:11.030Z,99584.85
2022-08-17T00:06:12.777Z,99587.35
2022-08-17T00:07:10.960Z,99584.77
2022-08-17T00:08:12.041Z,99583.24
2022-08-17T00:09:11.117Z,99579.16
2022-08-17T00:10:15.144Z,99578.48
2022-08-17T00:12:43.514Z,99578.56
2022-08-17T00:14:22.993Z,99576.97
2022-08-17T00:15:23.319Z,99575.61
2022-08-17T00:16:56.149Z,99570.37
2022-08-17T00:17:26.612Z,99574.52
2022-08-17T00:19:01.851Z,99575.35
2022-08-17T00:19:28.815Z,99572.39
2022-08-17T00:20:32.057Z,99572.58
2022-08-17T00:22:29.598Z,99575.35
2022-08-17T00:22:36.406Z,99574.77
2022-08-17T00:23:34.171Z,99571.81
2022-08-17T00:24:33.722Z,99578.3
2022-08-17T00:25:34.007Z,99577.67
2022-08-17T00:26:44.145Z,99576.02
2022-08-17T00:27:36.431Z,99575.79
2022-08-17T00:28:37.068Z,99577.73
2022-08-17T00:29:36.573Z,99575.94
2022-08-17T00:30:51.335Z,99580.58
2022-08-17T00:31:40.435Z,99577.47
2022-08-17T00:33:12.667Z,99577.46
2022-08-17T00:33:42.268Z,99578.06
2022-08-17T00:34:42.195Z,99575.8
2022-08-17T00:35:43.229Z,99575.01
2022-08-17T00:36:42.209Z,99575.5
2022-08-17T00:37:42.172Z,99575.62
2022-08-17T00:38:42.622Z,99578.91
2022-08-17T00:39:42.291Z,99575.6
2022-08-17T00:40:44.803Z,99579.11
2022-08-17T00:41:42.808Z,99584.4
2022-08-17T00:42:43.295Z,99584.74
2022-08-17T00:43:46.380Z,99584.62
2022-08-17T00:44:43.043Z,99581.26
2022-08-17T00:45:43.054Z,99584.16
2022-08-17T00:46:43.686Z,99586.06
2022-08-17T00:47:42.961Z,99584.2
2022-08-17T00:48:43.276Z,99588.69
2022-08-17T00:49:42.973Z,99583.88
2022-08-17T00:50:49.963Z,99584.63
2022-08-17T00:51:52.723Z,99585.45
2022-08-17T00:52:54.720Z,99584.13
2022-08-17T00:53:54.182Z,99581.93
2022-08-17T00:54:53.672Z,99584.71
2022-08-17T00:55:51.385Z,99584.53
2022-08-17T00:56:53.686Z,99587.91
2022-08-17T00:57:55.546Z,99584.38
2022-08-17T00:58:54.500Z,99590.36
2022-08-17T01:00:03.070Z,99588.97
2022-08-17T01:00:55.251Z,99589.61
2022-08-17T01:01:55.220Z,99585.3
2022-08-17T01:03:00.442Z,99587.67
2022-08-17T01:03:59.894Z,99585.39
2022-08-17T01:04:57.054Z,99585.36
2022-08-17T01:05:58.746Z,99586.02
2022-08-17T01:06:58.243Z,99588.03
2022-08-17T01:07:58.823Z,99584.12
2022-08-17T01:08:58.469Z,99586.39
2022-08-17T01:09:57.267Z,99586.31
2022-08-17T01:11:01.799Z,99584.03
2022-08-17T01:11:58.789Z,99585.89
2022-08-17T01:13:00.533Z,99585.39
2022-08-17T01:13:58.620Z,99587.76
2022-08-17T01:14:58.640Z,99588.84
2022-08-17T01:16:00.642Z,99589.28
2022-08-17T01:16:58.727Z,99589.28
2022-08-17T01:17:58.909Z,99587.67
2022-08-17T01:19:00.286Z,99590.52
2022-08-17T01:19:58.912Z,99590.34
2022-08-17T01:21:01.936Z,99590.66
2022-08-17T01:23:03.405Z,99586.76
2022-08-17T01:24:03.751Z,99589.09
2022-08-17T01:25:06.137Z,99589.25
2022-08-17T01:26:04.094Z,99588.01
2022-08-17T01:27:03.998Z,99586.98
2022-08-17T01:28:07.393Z,99590.53
2022-08-17T01:29:07.547Z,99591.04
2022-08-17T01:30:58.658Z,99584.55
2022-08-17T01:31:11.522Z,99589
2022-08-17T01:32:11.924Z,99585.8
2022-08-17T01:33:11.577Z,99585.96
2022-08-17T01:34:12.812Z,99584.62
2022-08-17T01:35:11.523Z,99584.95
2022-08-17T01:36:11.559Z,99584.58
2022-08-17T01:37:12.699Z,99583.8
2022-08-17T01:38:11.534Z,99581.16
2022-08-17T01:41:13.919Z,99582
2022-08-17T01:43:18.120Z,99574.86
2022-08-17T01:44:16.368Z,99576.86
2022-08-17T01:45:16.753Z,99577.27
2022-08-17T01:46:15.914Z,99576.03
2022-08-17T01:47:14.738Z,99576.52
2022-08-17T01:48:14.772Z,99572.77
2022-08-17T01:49:14.878Z,99575.03
2022-08-17T01:50:17.795Z,99580.52
2022-08-17T01:51:15.724Z,99572.77
2022-08-17T01:52:15.381Z,99574.86
2022-08-17T01:53:22.496Z,99577.64
2022-08-17T01:54:19.974Z,99573.72
2022-08-17T01:55:27.210Z,99571.97
2022-08-17T01:56:21.491Z,99577.14
2022-08-17T01:57:19.095Z,99577.17
2022-08-17T01:58:19.264Z,99573.47
2022-08-17T01:59:19.782Z,99575.17
2022-08-17T02:00:19.124Z,99574.13
2022-08-17T02:01:20.753Z,99573.64
2022-08-17T02:02:30.482Z,99575
2022-08-17T02:03:24.105Z,99577.42
2022-08-17T02:04:23.052Z,99574.06
2022-08-17T02:05:23.034Z,99573.03
2022-08-17T02:06:27.621Z,99576.73
2022-08-17T02:07:26.911Z,99575.05
2022-08-17T02:08:37.324Z,99573.86
2022-08-17T02:09:29.658Z,99574.02
2022-08-17T02:10:32.899Z,99573.16
2022-08-17T02:11:33.716Z,99571.98
2022-08-17T02:12:38.576Z,99570.97
2022-08-17T02:13:32.248Z,99573.89
2022-08-17T02:14:31.884Z,99571.36
2022-08-17T02:15:32.297Z,99569.62
2022-08-17T02:16:37.715Z,99570.94
2022-08-17T02:17:35.401Z,99565.41
2022-08-17T02:18:35.395Z,99569.45
2022-08-17T02:19:35.289Z,99567.92
2022-08-17T02:20:42.089Z,99568.64
2022-08-17T02:21:40.778Z,99567.94
2022-08-17T02:22:40.822Z,99567.25
2022-08-17T02:23:41.725Z,99566.91
2022-08-17T02:24:59.706Z,99562.09
2022-08-17T02:25:44.666Z,99562.88
2022-08-17T02:26:41.523Z,99564.61
2022-08-17T02:27:41.339Z,99561.43
2022-08-17T02:28:41.332Z,99559.28
2022-08-17T02:29:41.416Z,99557.38
2022-08-17T02:31:00.252Z,99563.52
2022-08-17T02:31:43.835Z,99559.61
2022-08-17T02:32:43.735Z,99556.44
2022-08-17T02:33:43.815Z,99553.23
2022-08-17T02:34:43.661Z,99558.38
2022-08-17T02:35:43.636Z,99552.3
2022-08-17T02:36:43.661Z,99552.27
2022-08-17T02:37:43.677Z,99555.4
2022-08-17T02:38:45.381Z,99560.11
2022-08-17T02:39:45.965Z,99554.97
2022-08-17T02:40:45.370Z,99552.36
2022-08-17T02:41:45.489Z,99556.27
2022-08-17T02:42:46.130Z,99555.97
2022-08-17T02:43:45.430Z,99556.24
2022-08-17T02:44:45.527Z,99556.17
2022-08-17T02:45:45.575Z,99555.83
2022-08-17T02:46:45.632Z,99558.09
2022-08-17T02:47:46.548Z,99550.3
2022-08-17T02:48:45.634Z,99549.39
2022-08-17T02:49:54.170Z,99551.38
2022-08-17T02:50:47.169Z,99551.95
2022-08-17T02:51:47.718Z,99555.34
2022-08-17T02:53:02.331Z,99552.59
2022-08-17T02:53:50.109Z,99554.27
2022-08-17T02:54:49.847Z,99554.93
2022-08-17T02:55:49.848Z,99555.22
2022-08-17T02:56:49.860Z,99554.79
2022-08-17T02:57:50.513Z,99554.08
2022-08-17T02:58:49.949Z,99553.06
2022-08-17T02:59:49.888Z,99554.03
2022-08-17T03:00:49.963Z,99552.62
2022-08-17T03:01:50.350Z,99552.08
2022-08-17T03:02:50.956Z,99545.84
2022-08-17T03:03:49.900Z,99546.69
2022-08-17T03:04:49.971Z,99548.77
2022-08-17T03:05:50.416Z,99551.85
2022-08-17T03:06:50.009Z,99549.11
2022-08-17T03:07:50.662Z,99548.49
2022-08-17T03:08:50.095Z,99549.83
2022-08-17T03:09:50.195Z,99553.16
2022-08-17T03:10:50.429Z,99551.97
2022-08-17T03:11:50.285Z,99551.16
2022-08-17T03:12:50.761Z,99548.9
2022-08-17T03:13:50.283Z,99556.94
2022-08-17T03:14:50.285Z,99555.95
2022-08-17T03:15:50.674Z,99560.05
2022-08-17T03:16:50.377Z,99561.14
2022-08-17T03:17:50.776Z,99561.16
2022-08-17T03:18:50.414Z,99562.72
2022-08-17T03:19:50.312Z,99562.53
2022-08-17T03:20:50.394Z,99566.44
2022-08-17T03:21:55.193Z,99569.47
2022-08-17T03:22:53.871Z,99569.73
2022-08-17T03:23:54.455Z,99571.67
2022-08-17T03:24:52.601Z,99569.47
2022-08-17T03:25:53.781Z,99568.2
2022-08-17T03:26:52.620Z,99569.33
2022-08-17T03:27:53.462Z,99571.77
2022-08-17T03:28:52.600Z,99574.27
2022-08-17T03:29:53.266Z,99576
2022-08-17T03:30:52.801Z,99569.19
2022-08-17T03:31:52.709Z,99573.5
2022-08-17T03:32:53.928Z,99573.53
2022-08-17T03:33:52.654Z,99571.17
2022-08-17T03:34:57.533Z,99573.94
2022-08-17T03:35:54.698Z,99572.02
2022-08-17T03:36:54.465Z,99571.38
2022-08-17T03:38:00.228Z,99575.91
2022-08-17T03:38:57.999Z,99573.75
2022-08-17T03:39:58.247Z,99577.45
2022-08-17T03:40:59.937Z,99579.97
2022-08-17T03:42:08.195Z,99580.71
2022-08-17T03:43:04.643Z,99581.39
2022-08-17T03:44:01.921Z,99580.36
2022-08-17T03:45:02.584Z,99581.89
2022-08-17T03:46:02.618Z,99580.96
2022-08-17T03:47:01.578Z,99582.3
2022-08-17T03:48:01.919Z,99577.08
2022-08-17T03:49:02.937Z,99582.97
2022-08-17T03:50:01.890Z,99586.52
2022-08-17T03:51:01.699Z,99579.2
2022-08-17T03:52:01.685Z,99583.74
2022-08-17T03:53:05.349Z,99585.98
2022-08-17T03:54:02.458Z,99590.38
2022-08-17T03:55:03.825Z,99589.14
2022-08-17T03:56:04.604Z,99588.47
2022-08-17T03:57:05.106Z,99589.38
2022-08-17T03:58:03.534Z,99588.29
2022-08-17T03:59:03.526Z,99589.78
2022-08-17T04:00:04.206Z,99590.8
2022-08-17T04:01:04.611Z,99594.56
2022-08-17T04:02:08.289Z,99593.67
2022-08-17T04:03:05.090Z,99589.3
2022-08-17T04:04:05.761Z,99591.53
2022-08-17T04:05:05.660Z,99591.77
2022-08-17T04:06:05.534Z,99594.25
2022-08-17T04:07:05.636Z,99589.02
2022-08-17T04:08:05.478Z,99589.84
2022-08-17T04:09:05.396Z,99595.92
2022-08-17T04:10:05.799Z,99593.38
2022-08-17T04:11:05.521Z,99596.16
2022-08-17T04:12:05.682Z,99596.27
2022-08-17T04:13:05.456Z,99594.16
2022-08-17T04:14:06.287Z,99594.4
2022-08-17T04:15:05.775Z,99596.45
2022-08-17T04:16:05.763Z,99594.45
2022-08-17T04:17:05.498Z,99595.75
2022-08-17T04:18:07.448Z,99601.59
2022-08-17T04:19:06.166Z,99595.29
2022-08-17T04:20:05.804Z,99599.69
2022-08-17T04:21:08.393Z,99594.98
2022-08-17T04:22:05.382Z,99599.3
2022-08-17T04:23:08.311Z,99597.44
2022-08-17T04:24:05.831Z,99598.53
2022-08-17T04:25:09.908Z,99592.34
2022-08-17T04:26:06.920Z,99598.76
2022-08-17T04:27:06.904Z,99596.68
2022-08-17T04:28:09.039Z,99599.23
2022-08-17T04:29:08.512Z,99598.88
2022-08-17T04:30:09.042Z,99602
2022-08-17T04:31:12.174Z,99597.73
2022-08-17T04:32:09.255Z,99595.97
2022-08-17T04:33:11.107Z,99594.56
2022-08-17T04:34:09.458Z,99599.73
2022-08-17T04:35:09.296Z,99594.68
2022-08-17T04:36:09.484Z,99591.66
2022-08-17T04:37:09.168Z,99591.61
2022-08-17T04:38:11.457Z,99597.28
2022-08-17T04:39:09.303Z,99589.21
2022-08-17T04:40:09.783Z,99594.04
2022-08-17T04:41:09.853Z,99590.16
2022-08-17T04:42:09.370Z,99595.3
2022-08-17T04:43:13.937Z,99589.59
2022-08-17T04:44:10.885Z,99592.81
2022-08-17T04:45:11.257Z,99595.27
2022-08-17T04:46:12.453Z,99592.23
2022-08-17T04:47:10.875Z,99591.22
2022-08-17T04:48:11.186Z,99592.92
2022-08-17T04:49:11.200Z,99591.25
2022-08-17T04:50:11.156Z,99589.58
2022-08-17T04:51:15.614Z,99590.43
2022-08-17T04:52:12.583Z,99589.59
2022-08-17T04:53:14.464Z,99590.2
2022-08-17T04:54:15.777Z,99586.73
2022-08-17T04:55:14.863Z,99586.72
2022-08-17T04:56:16.644Z,99589.45
2022-08-17T04:57:14.683Z,99589.87
2022-08-17T04:58:14.515Z,99589.36
2022-08-17T04:59:16.004Z,99594.78
2022-08-17T05:00:14.761Z,99592.94
2022-08-17T05:01:15.328Z,99593.69
2022-08-17T05:02:14.670Z,99595.62
2022-08-17T05:03:14.558Z,99594.97
2022-08-17T05:04:33.110Z,99598.09
2022-08-17T05:06:19.340Z,99597.16
2022-08-17T05:07:23.510Z,99596.12
2022-08-17T05:08:21.573Z,99595.72
2022-08-17T05:09:21.266Z,99598.59
2022-08-17T05:10:21.662Z,99599.02
2022-08-17T05:11:21.541Z,99599.95
2022-08-17T05:12:21.381Z,99597.84
2022-08-17T05:13:23.151Z,99600.91
2022-08-17T05:14:21.414Z,99598.64
2022-08-17T05:15:24.801Z,99597.88
2022-08-17T05:16:25.967Z,99600.92
2022-08-17T05:17:24.831Z,99602.6
2022-08-17T05:18:24.999Z,99600.88
2022-08-17T05:19:24.763Z,99602.52
2022-08-17T05:20:24.991Z,99603.17
2022-08-17T05:21:25.056Z,99601.57
2022-08-17T05:22:24.880Z,99606.73
2022-08-17T05:23:25.919Z,99608.59
2022-08-17T05:24:42.684Z,99606.58
2022-08-17T05:26:29.360Z,99607.33
2022-08-17T05:27:29.303Z,99602.11
2022-08-17T05:28:32.041Z,99604.74
2022-08-17T05:29:35.229Z,99604.82
2022-08-17T05:30:32.325Z,99606.78
2022-08-17T05:31:32.388Z,99608.19
2022-08-17T05:32:38.457Z,99609.16
2022-08-17T05:33:41.456Z,99608.22
2022-08-17T05:34:40.464Z,99614.32
2022-08-17T05:35:42.256Z,99611.12
2022-08-17T05:36:44.146Z,99611.48
2022-08-17T05:37:41.111Z,99607.68
2022-08-17T05:38:41.096Z,99610.56
2022-08-17T05:39:41.148Z,99606.66
2022-08-17T05:40:41.553Z,99606.16
2022-08-17T05:41:41.086Z,99606.41
2022-08-17T05:42:41.126Z,99611.98
2022-08-17T05:43:41.877Z,99614.7
2022-08-17T05:44:41.079Z,99615.3
2022-08-17T05:46:51.394Z,99606.49
2022-08-17T05:47:48.465Z,99607.77
2022-08-17T05:48:50.205Z,99605.14
2022-08-17T05:49:49.024Z,99606.5
2022-08-17T05:55:07.046Z,99611.02
2022-08-17T05:56:19.861Z,99609.73
2022-08-17T05:58:13.560Z,99616.7
2022-08-17T05:59:14.488Z,99617.17
2022-08-17T06:00:14.511Z,99615.31
2022-08-17T06:16:59.044Z,99626.3
2022-08-17T06:17:58.514Z,99627.81
2022-08-17T06:20:04.277Z,99624.97
2022-08-17T06:21:04.761Z,99629.45
2022-08-17T06:22:02.695Z,99627.91
2022-08-17T06:23:09.008Z,99624.4
2022-08-17T06:25:19.679Z,99622.47
2022-08-17T06:26:14.190Z,99629.05
2022-08-17T06:28:13.818Z,99625.02
2022-08-17T06:30:16.209Z,99620.3
2022-08-17T06:31:17.436Z,99622.28
2022-08-17T06:32:14.185Z,99619.9
2022-08-17T06:33:19.417Z,99617.73
2022-08-17T06:34:16.077Z,99615.48
2022-08-17T06:35:17.696Z,99616.02
2022-08-17T06:38:38.506Z,99614.39
2022-08-17T06:45:41.768Z,99611.5
2022-08-17T06:46:50.935Z,99614.79
2022-08-17T06:48:51.925Z,99613.16
2022-08-17T06:50:53.388Z,99609.02
2022-08-17T06:54:07.090Z,99617.33
2022-08-17T06:55:02.133Z,99614.59
2022-08-17T06:56:05.859Z,99612.92
2022-08-17T06:57:09.970Z,99610.18
2022-08-17T06:58:16.230Z,99613.3
2022-08-17T06:59:11.050Z,99612.96
2022-08-17T07:00:19.617Z,99607.57
2022-08-17T07:01:19.164Z,99609.3
2022-08-17T07:02:19.823Z,99609.16
2022-08-17T07:03:32.143Z,99606.11
2022-08-17T07:04:30.093Z,99610.38
2022-08-17T07:05:32.779Z,99610.97
2022-08-17T07:06:37.718Z,99610.86
2022-08-17T07:07:30.371Z,99613.12
2022-08-17T07:09:35.613Z,99612.8
2022-08-17T07:10:39.164Z,99616.58
2022-08-17T07:11:40.703Z,99612.97
2022-08-17T07:12:41.181Z,99614.59
2022-08-17T07:13:44.450Z,99615.27
2022-08-17T07:15:41.732Z,99617.48
2022-08-17T07:16:42.240Z,99617.64
2022-08-17T07:17:47.463Z,99616.69
2022-08-17T07:18:45.503Z,99615.42
2022-08-17T07:19:45.869Z,99613.33
2022-08-17T07:20:47.999Z,99614.93
2022-08-17T07:22:57.538Z,99613.36
2022-08-17T07:24:56.074Z,99616.39
2022-08-17T07:25:52.636Z,99618.27
2022-08-17T07:27:58.453Z,99614.48
2022-08-17T07:28:57.044Z,99616.44
2022-08-17T07:30:11.353Z,99620.71
2022-08-17T07:30:58.489Z,99619.16
2022-08-17T07:31:59.069Z,99619.73
2022-08-17T07:33:01.019Z,99621.71
2022-08-17T07:34:00.912Z,99618.64
2022-08-17T07:36:02.797Z,99619.38
2022-08-17T07:37:04.238Z,99624.84
2022-08-17T07:38:25.204Z,99623.95
2022-08-17T07:39:04.041Z,99623.25
2022-08-17T07:41:09.339Z,99623.95
2022-08-17T07:42:10.240Z,99627.53
2022-08-17T07:44:11.628Z,99633.78
2022-08-17T07:45:08.391Z,99628.83
2022-08-17T07:47:15.914Z,99630.38
2022-08-17T07:50:29.469Z,99630.34
2022-08-17T07:51:23.304Z,99628.8
2022-08-17T07:52:50.948Z,99632.02
2022-08-17T07:53:25.553Z,99632.25
2022-08-17T07:54:31.496Z,99630.84
2022-08-17T07:55:30.712Z,99630.16
2022-08-17T07:56:36.958Z,99628.74
2022-08-17T07:57:35.636Z,99630.03
2022-08-17T07:58:32.663Z,99625.91
2022-08-17T07:59:34.108Z,99627.78
2022-08-17T08:00:33.107Z,99630.7
2022-08-17T08:01:39.380Z,99629.23
2022-08-17T08:02:37.777Z,99628.29
2022-08-17T08:03:40.437Z,99625.59
2022-08-17T08:04:59.781Z,99626.23
2022-08-17T08:06:48.043Z,99628.55
2022-08-17T08:08:51.045Z,99630.07
2022-08-17T08:11:00.764Z,99628.8
2022-08-17T08:11:57.291Z,99630.91
2022-08-17T08:13:06.942Z,99636.75
2022-08-17T08:15:18.537Z,99633.95
2022-08-17T08:17:10.016Z,99633.84
2022-08-17T08:19:10.327Z,99636.08
2022-08-17T08:20:35.024Z,99631.94
2022-08-17T08:22:21.415Z,99632.47
2022-08-17T08:27:39.287Z,99625.5
2022-08-17T08:33:56.760Z,99630.85
2022-08-17T08:35:05.311Z,99631.92
2022-08-17T08:39:06.278Z,99630.33
2022-08-17T08:40:10.806Z,99629.88
2022-08-17T08:45:00.923Z,99631.38
2022-08-17T08:45:28.399Z,99630.12
2022-08-17T08:57:45.280Z,99632.04
2022-08-17T09:00:54.447Z,99630.08
2022-08-17T09:06:37.926Z,99624.31
2022-08-17T09:08:27.538Z,99623.25
2022-08-17T09:10:30.685Z,99617.8
2022-08-17T09:11:26.619Z,99622.12
2022-08-17T09:14:32.803Z,99620.32
2022-08-17T09:15:38.408Z,99620.09
2022-08-17T09:19:00.988Z,99614.83
2022-08-17T09:19:48.684Z,99618.91
2022-08-17T09:20:50.412Z,99612.77
2022-08-17T09:22:50.747Z,99617.16
2022-08-17T09:26:00.759Z,99617.59
2022-08-17T09:28:06.553Z,99620.06
2022-08-17T09:29:08.601Z,99620.2
2022-08-17T09:30:09.033Z,99613.41
2022-08-17T09:31:11.224Z,99617.36
2022-08-17T09:33:09.902Z,99615.39
2022-08-17T09:34:15.121Z,99616.6
2022-08-17T09:35:21.157Z,99611.42
2022-08-17T09:36:20.777Z,99611.9
2022-08-17T09:40:25.765Z,99612.16
2022-08-17T09:48:54.396Z,99610.99
2022-08-17T09:49:55.002Z,99609.89
2022-08-17T09:51:58.383Z,99605.11
2022-08-17T09:52:57.671Z,99603.09
2022-08-17T09:54:05.187Z,99606.89
2022-08-17T09:54:57.413Z,99604.12
2022-08-17T10:03:20.993Z,99598.74
2022-08-17T10:06:24.958Z,99593.68
2022-08-17T10:12:47.054Z,99593.34
2022-08-17T10:16:55.581Z,99594.44
2022-08-17T10:22:33.024Z,99591.98
2022-08-17T10:23:11.081Z,99588.34
2022-08-17T10:24:07.419Z,99585.15
2022-08-17T10:25:22.430Z,99588.34
2022-08-17T10:27:13.033Z,99591.34
2022-08-17T10:28:19.855Z,99583.64
2022-08-17T10:29:20.756Z,99588.75
2022-08-17T10:30:16.270Z,99583.67
2022-08-17T10:31:34.289Z,99588.36
2022-08-17T10:33:23.271Z,99590.55
2022-08-17T10:39:52.022Z,99590.91
2022-08-17T10:40:53.767Z,99593.89
2022-08-17T10:41:45.253Z,99591.12
2022-08-17T10:42:51.518Z,99592.02
2022-08-17T10:46:10.407Z,99602.82
2022-08-17T10:48:05.887Z,99598.67
2022-08-17T10:51:01.814Z,99601.32
2022-08-17T10:53:01.233Z,99599.77
2022-08-17T10:54:01.256Z,99601.53
2022-08-17T10:59:07.959Z,99602.39
2022-08-17T11:00:12.841Z,99601.59
2022-08-17T11:01:09.992Z,99601.38
2022-08-17T11:02:20.004Z,99600.72
2022-08-17T11:16:58.836Z,99606.22
2022-08-17T11:27:23.866Z,99605.5
2022-08-17T11:28:18.150Z,99605.69
2022-08-17T11:29:20.997Z,99601.62
2022-08-17T11:34:26.712Z,99602.24
2022-08-17T11:35:32.642Z,99601.39
2022-08-17T11:48:09.382Z,99600.75
2022-08-17T11:48:54.573Z,99598.31
2022-08-17T11:50:00.802Z,99599.3
2022-08-17T11:50:55.056Z,99599.39
2022-08-17T11:52:57.123Z,99601.09
2022-08-17T11:54:21.592Z,99600.67
2022-08-17T11:55:17.586Z,99603.84
2022-08-17T11:56:03.513Z,99602.21
2022-08-17T12:00:06.943Z,99595.78
2022-08-17T12:01:07.177Z,99592.8
2022-08-17T12:03:21.584Z,99591.55
2022-08-17T12:05:25.358Z,99588.61
2022-08-17T12:07:22.569Z,99587.01
2022-08-17T12:08:21.691Z,99586.78
2022-08-17T12:09:30.805Z,99587.81
2022-08-17T12:10:25.611Z,99583.58
2022-08-17T12:12:27.705Z,99587.7
2022-08-17T12:13:30.453Z,99585.64
2022-08-17T12:14:45.436Z,99587.59
2022-08-17T12:16:32.947Z,99584.16
2022-08-17T12:17:40.502Z,99587.09
2022-08-17T12:18:36.004Z,99585.5
2022-08-17T12:19:35.057Z,99584.5
2022-08-17T12:20:39.214Z,99586.66
2022-08-17T12:21:40.328Z,99588.28
2022-08-17T12:23:44.124Z,99581.36
2022-08-17T12:25:47.628Z,99581.23
2022-08-17T12:28:05.469Z,99577.36
2022-08-17T12:28:50.543Z,99581.64
2022-08-17T12:29:48.976Z,99573.3
2022-08-17T12:30:50.220Z,99573.56
2022-08-17T12:31:50.465Z,99566.42
2022-08-17T12:32:48.934Z,99572.27
2022-08-17T12:33:49.165Z,99567.94
2022-08-17T12:34:49.719Z,99568.28
2022-08-17T12:35:48.954Z,99566.72
2022-08-17T12:36:51.026Z,99567.68
2022-08-17T12:37:50.543Z,99575.5
2022-08-17T12:40:55.160Z,99572.45
2022-08-17T12:42:01.426Z,99570.67
2022-08-17T12:43:03.603Z,99568.56
2022-08-17T12:44:01.663Z,99571.62
2022-08-17T12:45:00.619Z,99578.63
2022-08-17T12:46:13.310Z,99568.76
2022-08-17T12:47:10.233Z,99573.7
2022-08-17T12:49:17.149Z,99574.52
2022-08-17T12:50:28.955Z,99569.62
2022-08-17T12:51:16.983Z,99575.59
2022-08-17T12:52:21.814Z,99566.95
2022-08-17T12:53:24.167Z,99573.63
2022-08-17T12:54:33.635Z,99568.16
2022-08-17T12:55:26.272Z,99570.97
2022-08-17T12:56:29.608Z,99567.95
2022-08-17T12:58:35.769Z,99566.08
2022-08-17T12:59:34.081Z,99564.79
2022-08-17T13:00:36.811Z,99562.84
2022-08-17T13:01:34.436Z,99560.3
2022-08-17T13:04:39.598Z,99557.23
2022-08-17T13:05:42.033Z,99555.75
2022-08-17T13:07:42.620Z,99553.09
2022-08-17T13:08:46.520Z,99547.72
2022-08-17T13:11:53.741Z,99549.55
2022-08-17T13:12:51.406Z,99549.94
2022-08-17T13:13:51.733Z,99553.16
2022-08-17T13:14:50.283Z,99549.14
2022-08-17T13:16:59.167Z,99551.73
2022-08-17T13:17:57.291Z,99548.44
2022-08-17T13:19:57.626Z,99544.94
2022-08-17T13:20:58.506Z,99545.11
2022-08-17T13:21:58.816Z,99546.84
2022-08-17T13:22:58.841Z,99546.36
2022-08-17T13:25:00.361Z,99543.84
2022-08-17T13:26:03.275Z,99543.62
2022-08-17T13:27:08.703Z,99547.91
2022-08-17T13:28:00.922Z,99548.55
2022-08-17T13:29:02.333Z,99543.03
2022-08-17T13:30:02.241Z,99544.76
2022-08-17T13:36:10.015Z,99543.7
2022-08-17T13:38:15.249Z,99542.93
2022-08-17T13:42:29.960Z,99535.75
2022-08-17T13:46:31.965Z,99541.32
2022-08-17T13:47:28.693Z,99538.56
2022-08-17T13:48:29.333Z,99537.38
2022-08-17T13:49:48.248Z,99539.48
2022-08-17T13:50:30.886Z,99539.27
2022-08-17T13:51:33.814Z,99540.77
2022-08-17T13:54:40.695Z,99536.61
2022-08-17T13:55:40.273Z,99537.2
2022-08-17T13:56:46.374Z,99536.84
2022-08-17T13:58:03.994Z,99536.64
2022-08-17T13:59:54.992Z,99534.33
2022-08-17T14:00:47.490Z,99534.88
2022-08-17T14:01:53.615Z,99538.34
2022-08-17T14:02:50.663Z,99537.02
2022-08-17T14:03:51.492Z,99535.81
2022-08-17T14:04:50.657Z,99539.06
2022-08-17T14:05:51.542Z,99539.59
2022-08-17T14:07:59.660Z,99536.59
2022-08-17T14:08:56.242Z,99537.77
2022-08-17T14:11:00.295Z,99540.62
2022-08-17T14:12:00.698Z,99540.53
2022-08-17T14:13:00.194Z,99536.64
2022-08-17T14:14:00.380Z,99543.42
2022-08-17T14:15:00.612Z,99541.08
2022-08-17T14:16:00.306Z,99541.01
2022-08-17T14:17:00.259Z,99542.55
2022-08-17T14:18:00.431Z,99540.58
2022-08-17T14:19:00.319Z,99545.02
2022-08-17T14:20:00.230Z,99542.11
2022-08-17T14:21:00.460Z,99545.11
2022-08-17T14:22:00.487Z,99542.05
2022-08-17T14:23:00.344Z,99543.32
2022-08-17T14:24:00.428Z,99537.88
2022-08-17T14:25:00.757Z,99539.52
2022-08-17T14:26:00.571Z,99541.56
2022-08-17T14:27:01.666Z,99538.94
2022-08-17T14:28:01.062Z,99536.47
2022-08-17T14:29:00.570Z,99532.41
2022-08-17T14:30:01.434Z,99534.86
2022-08-17T14:31:00.940Z,99535.77
2022-08-17T14:32:03.488Z,99536.46
2022-08-17T14:33:00.443Z,99531.39
2022-08-17T14:34:00.617Z,99532.06
2022-08-17T14:35:03.703Z,99533.6
2022-08-17T14:36:00.608Z,99531.5
2022-08-17T14:37:00.539Z,99532.11
2022-08-17T14:38:02.782Z,99532.34
2022-08-17T14:39:00.681Z,99538.11
2022-08-17T14:40:02.477Z,99534.48
2022-08-17T14:41:00.736Z,99536.77
2022-08-17T14:42:01.338Z,99536.69
2022-08-17T14:43:00.936Z,99535
2022-08-17T14:44:01.026Z,99533.25
2022-08-17T14:45:00.693Z,99531.73
2022-08-17T14:46:00.962Z,99534.38
2022-08-17T14:47:00.771Z,99536.02
2022-08-17T14:48:09.711Z,99535.52
2022-08-17T14:49:01.549Z,99534.28
2022-08-17T14:50:02.134Z,99529.98
2022-08-17T14:51:01.724Z,99527.03
2022-08-17T14:52:02.048Z,99529.95
2022-08-17T14:53:01.981Z,99527.44
2022-08-17T14:54:02.033Z,99527.62
2022-08-17T14:55:01.817Z,99521.45
2022-08-17T14:56:01.800Z,99522.94
2022-08-17T14:57:22.220Z,99524.5
2022-08-17T14:58:03.314Z,99524.78
2022-08-17T14:59:03.621Z,99524.64
2022-08-17T15:00:04.557Z,99520.33
2022-08-17T15:01:03.480Z,99521.72
2022-08-17T15:02:03.430Z,99523.84
2022-08-17T15:03:04.193Z,99516.58
2022-08-17T15:04:03.622Z,99519.78
2022-08-17T15:05:05.073Z,99517.44
2022-08-17T15:06:03.861Z,99517.78
2022-08-17T15:07:03.893Z,99518.97
2022-08-17T15:08:04.241Z,99511.46
2022-08-17T15:09:03.524Z,99516.27
2022-08-17T15:10:03.946Z,99512.05
2022-08-17T15:11:04.050Z,99512.27
2022-08-17T15:12:03.913Z,99512.13
2022-08-17T15:13:03.804Z,99512.47
2022-08-17T15:14:03.571Z,99511.07
2022-08-17T15:15:05.445Z,99510.08
2022-08-17T15:16:03.960Z,99512.97
2022-08-17T15:17:03.798Z,99510.73
2022-08-17T15:18:03.914Z,99510.96
2022-08-17T15:19:07.608Z,99510.66
2022-08-17T15:20:05.886Z,99506.2
2022-08-17T15:21:05.075Z,99511.41
2022-08-17T15:22:04.108Z,99508.99
2022-08-17T15:23:04.247Z,99507.7
2022-08-17T15:24:05.121Z,99507.98
2022-08-17T15:25:05.473Z,99511.05
2022-08-17T15:26:04.167Z,99507.7
2022-08-17T15:27:04.492Z,99507.92
2022-08-17T15:28:04.558Z,99505.77
2022-08-17T15:29:04.204Z,99508.44
2022-08-17T15:30:05.412Z,99507.02
2022-08-17T15:31:04.516Z,99502.74
2022-08-17T15:32:04.628Z,99505.61
2022-08-17T15:33:04.344Z,99504.73
2022-08-17T15:34:04.275Z,99505.04
2022-08-17T15:35:06.172Z,99507.39
2022-08-17T15:36:06.424Z,99507.41
2022-08-17T15:37:04.702Z,99502.84
2022-08-17T15:38:11.242Z,99503.38
2022-08-17T15:39:08.744Z,99503.72
2022-08-17T15:40:09.356Z,99502.28
2022-08-17T15:41:09.622Z,99501.92
2022-08-17T15:42:09.461Z,99498.65
2022-08-17T15:43:10.024Z,99499.98
2022-08-17T15:44:08.779Z,99498.7
2022-08-17T15:45:10.638Z,99497.05
2022-08-17T15:46:10.068Z,99494.98
2022-08-17T15:47:08.802Z,99499.32
2022-08-17T15:48:09.129Z,99498.14
2022-08-17T15:49:08.757Z,99498.01
2022-08-17T15:50:09.331Z,99501.76
2022-08-17T15:53:13.016Z,99501.34
2022-08-17T15:54:22.340Z,99495.81
2022-08-17T15:55:14.785Z,99499.14
2022-08-17T15:56:15.034Z,99498.04
2022-08-17T15:57:14.547Z,99497.5
2022-08-17T15:58:14.542Z,99496.62
2022-08-17T15:59:15.729Z,99497.79